createdAt,value
2023-03-11T00:01:43.568Z,-5.06
2023-03-11T00:04:10.375Z,-5.06
2023-03-11T00:06:37.549Z,-5.04
2023-03-11T00:09:05.190Z,-5.03
2023-03-11T00:11:32.029Z,-5.02
2023-03-11T00:13:58.739Z,-5.01
2023-03-11T00:16:25.393Z,-5.00
2023-03-11T00:18:52.818Z,-5.03
2023-03-11T00:21:20.385Z,-5.08
2023-03-11T00:23:47.299Z,-5.13
2023-03-11T00:26:14.135Z,-5.16
2023-03-11T00:28:41.001Z,-5.15
2023-03-11T00:31:07.716Z,-5.14
2023-03-11T00:33:34.349Z,-5.14
2023-03-11T00:36:01.037Z,-5.16
2023-03-11T00:38:27.739Z,-5.16
2023-03-11T00:40:54.409Z,-5.15
2023-03-11T00:43:21.047Z,-5.14
2023-03-11T00:45:47.856Z,-5.14
2023-03-11T00:48:15.435Z,-5.14
2023-03-11T00:50:42.874Z,-5.15
2023-03-11T00:53:10.540Z,-5.21
2023-03-11T00:55:37.196Z,-5.24
2023-03-11T00:58:06.004Z,-5.28
2023-03-11T01:00:32.685Z,-5.36
2023-03-11T01:03:00.372Z,-5.45
2023-03-11T01:05:30.886Z,-5.48
2023-03-11T01:07:58.418Z,-5.49
2023-03-11T01:10:25.310Z,-5.48
2023-03-11T01:12:52.084Z,-5.52
2023-03-11T01:15:23.901Z,-5.60
2023-03-11T01:17:50.564Z,-5.64
2023-03-11T01:20:17.635Z,-5.69
2023-03-11T01:22:44.530Z,-5.77
2023-03-11T01:25:14.887Z,-5.85
2023-03-11T01:27:41.573Z,-5.92
2023-03-11T01:30:09.548Z,-5.98
2023-03-11T01:32:36.271Z,-6.05
2023-03-11T01:35:02.995Z,-6.12
2023-03-11T01:37:29.777Z,-6.12
2023-03-11T01:39:56.498Z,-6.10
2023-03-11T01:42:23.171Z,-6.09
2023-03-11T01:44:49.804Z,-6.11
2023-03-11T01:47:38.410Z,-6.12
2023-03-11T01:50:10.033Z,-6.14
2023-03-11T01:52:36.862Z,-6.17
2023-03-11T01:55:03.832Z,-6.22
2023-03-11T01:57:31.164Z,-6.25
2023-03-11T02:00:01.917Z,-6.27
2023-03-11T02:02:35.284Z,-6.26
2023-03-11T02:05:03.081Z,-6.22
2023-03-11T02:07:30.069Z,-6.22
2023-03-11T02:09:56.724Z,-6.20
2023-03-11T02:12:23.488Z,-6.17
2023-03-11T02:14:54.611Z,-6.15
2023-03-11T02:17:22.344Z,-6.16
2023-03-11T02:20:12.313Z,-6.16
2023-03-11T02:22:41.983Z,-6.18
2023-03-11T02:25:20.236Z,-6.22
2023-03-11T02:27:49.910Z,-6.22
2023-03-11T02:30:17.823Z,-6.20
2023-03-11T02:32:48.583Z,-6.14
2023-03-11T02:35:16.676Z,-6.14
2023-03-11T02:37:52.054Z,-6.15
2023-03-11T02:40:24.514Z,-6.14
2023-03-11T02:42:56.160Z,-6.16
2023-03-11T02:45:25.866Z,-6.18
2023-03-11T02:47:54.742Z,-6.17
2023-03-11T02:50:22.593Z,-6.18
2023-03-11T02:52:50.158Z,-6.21
2023-03-11T02:55:18.214Z,-6.24
2023-03-11T02:57:45.156Z,-6.22
2023-03-11T03:00:15.221Z,-6.21
2023-03-11T03:02:42.632Z,-6.22
2023-03-11T03:05:10.352Z,-6.21
2023-03-11T03:07:37.770Z,-6.23
2023-03-11T03:10:06.417Z,-6.22
2023-03-11T03:12:33.226Z,-6.23
2023-03-11T03:14:59.875Z,-6.22
2023-03-11T03:17:26.637Z,-6.22
2023-03-11T03:19:53.353Z,-6.23
2023-03-11T03:22:20.061Z,-6.22
2023-03-11T03:24:46.865Z,-6.21
2023-03-11T03:27:13.460Z,-6.19
2023-03-11T03:29:40.095Z,-6.16
2023-03-11T03:32:06.981Z,-6.14
2023-03-11T03:34:33.821Z,-6.13
2023-03-11T03:37:00.449Z,-6.13
2023-03-11T03:39:29.387Z,-6.12
2023-03-11T03:41:57.205Z,-6.11
2023-03-11T03:44:24.073Z,-6.09
2023-03-11T03:46:50.708Z,-6.11
2023-03-11T03:49:17.331Z,-6.09
2023-03-11T03:51:43.994Z,-6.05
2023-03-11T03:54:10.618Z,-6.03
2023-03-11T03:56:37.248Z,-6.00
2023-03-11T03:59:04.005Z,-5.97
2023-03-11T04:01:30.710Z,-5.96
2023-03-11T04:03:57.486Z,-5.96
2023-03-11T04:06:26.608Z,-5.96
2023-03-11T04:08:54.586Z,-5.98
2023-03-11T04:11:22.331Z,-5.97
2023-03-11T04:13:49.455Z,-5.95
2023-03-11T04:16:19.981Z,-5.96
2023-03-11T04:18:47.157Z,-5.93
2023-03-11T04:21:13.797Z,-5.91
2023-03-11T04:23:40.403Z,-5.87
2023-03-11T04:26:07.096Z,-5.83
2023-03-11T04:28:33.807Z,-5.83
2023-03-11T04:31:00.481Z,-5.83
2023-03-11T04:33:27.193Z,-5.81
2023-03-11T04:35:53.950Z,-5.84
2023-03-11T04:38:20.626Z,-5.81
2023-03-11T04:40:47.239Z,-5.78
2023-03-11T04:43:14.121Z,-5.75
2023-03-11T04:45:42.446Z,-5.71
2023-03-11T04:48:09.524Z,-5.68
2023-03-11T04:50:36.385Z,-5.61
2023-03-11T04:53:03.119Z,-5.60
2023-03-11T04:55:29.788Z,-5.58
2023-03-11T04:57:56.449Z,-5.57
2023-03-11T05:00:25.061Z,-5.56
2023-03-11T05:02:52.344Z,-5.58
2023-03-11T05:05:22.195Z,-5.58
2023-03-11T05:07:49.393Z,-5.56
2023-03-11T05:10:22.578Z,-5.55
2023-03-11T05:12:50.757Z,-5.53
2023-03-11T05:15:18.338Z,-5.50
2023-03-11T05:17:45.864Z,-5.48
2023-03-11T05:20:12.762Z,-5.44
2023-03-11T05:22:39.474Z,-5.42
2023-03-11T05:25:07.102Z,-5.40
2023-03-11T05:27:33.749Z,-5.39
2023-03-11T05:30:00.370Z,-5.36
2023-03-11T05:32:27.120Z,-5.32
2023-03-11T05:34:53.851Z,-5.29
2023-03-11T05:37:20.451Z,-5.25
2023-03-11T05:39:47.144Z,-5.21
2023-03-11T05:42:13.790Z,-5.17
2023-03-11T05:44:41.494Z,-5.17
2023-03-11T05:47:08.175Z,-5.15
2023-03-11T05:49:35.054Z,-5.13
2023-03-11T05:52:01.683Z,-5.11
2023-03-11T05:54:28.329Z,-5.09
2023-03-11T05:56:55.924Z,-5.08
2023-03-11T05:59:23.344Z,-5.04
2023-03-11T06:01:49.977Z,-5.01
2023-03-11T06:04:16.777Z,-4.99
2023-03-11T06:06:43.574Z,-4.94
2023-03-11T06:09:13.981Z,-4.91
2023-03-11T06:11:40.997Z,-4.91
2023-03-11T06:14:07.679Z,-4.90
2023-03-11T06:16:34.419Z,-4.91
2023-03-11T06:19:01.195Z,-4.87
2023-03-11T06:21:28.258Z,-4.83
2023-03-11T06:23:55.118Z,-4.79
2023-03-11T06:26:22.813Z,-4.71
2023-03-11T06:28:50.753Z,-4.68
2023-03-11T06:31:20.238Z,-4.65
2023-03-11T06:33:48.071Z,-4.61
2023-03-11T06:36:16.080Z,-4.57
2023-03-11T06:38:43.343Z,-4.51
2023-03-11T06:41:10.726Z,-4.48
2023-03-11T06:43:37.591Z,-4.46
2023-03-11T06:46:12.624Z,-4.40
2023-03-11T06:48:39.567Z,-4.36
2023-03-11T06:51:06.811Z,-4.29
2023-03-11T06:53:33.897Z,-4.20
2023-03-11T06:56:02.996Z,-4.13
2023-03-11T06:58:31.009Z,-4.08
2023-03-11T07:01:15.530Z,-4.00
2023-03-11T07:03:42.342Z,-3.93
2023-03-11T07:06:17.281Z,-3.90
2023-03-11T07:08:44.075Z,-3.85
2023-03-11T07:11:15.405Z,-3.79
2023-03-11T07:13:42.914Z,-3.74
2023-03-11T07:16:15.745Z,-3.67
2023-03-11T07:18:44.784Z,-3.61
2023-03-11T07:21:14.274Z,-3.57
2023-03-11T07:23:41.619Z,-3.50
2023-03-11T07:26:12.617Z,-3.48
2023-03-11T07:28:40.093Z,-3.45
2023-03-11T07:31:14.754Z,-3.39
2023-03-11T07:33:41.487Z,-3.36
2023-03-11T07:36:14.089Z,-3.32
2023-03-11T07:38:41.890Z,-3.29
2023-03-11T07:41:11.214Z,-3.24
2023-03-11T07:43:38.759Z,-3.18
2023-03-11T07:46:16.130Z,-3.13
2023-03-11T07:48:42.868Z,-3.10
2023-03-11T07:51:21.709Z,-3.01
2023-03-11T07:53:49.157Z,-2.97
2023-03-11T07:56:17.563Z,-2.92
2023-03-11T07:58:45.820Z,-2.86
2023-03-11T08:01:24.266Z,-2.79
2023-03-11T08:03:57.173Z,-2.69
2023-03-11T08:06:26.602Z,-2.63
2023-03-11T08:08:53.293Z,-2.57
2023-03-11T08:11:23.396Z,-2.52
2023-03-11T08:13:50.679Z,-2.48
2023-03-11T08:16:19.470Z,-2.45
2023-03-11T08:18:47.554Z,-2.42
2023-03-11T08:21:17.214Z,-2.38
2023-03-11T08:23:46.117Z,-2.32
2023-03-11T08:26:18.096Z,-2.26
2023-03-11T08:28:44.878Z,-2.16
2023-03-11T08:31:26.066Z,-2.07
2023-03-11T08:33:54.856Z,-2.01
2023-03-11T08:36:21.848Z,-1.95
2023-03-11T08:38:48.819Z,-1.90
2023-03-11T08:41:16.586Z,-1.83
2023-03-11T08:43:44.534Z,-1.78
2023-03-11T08:46:22.965Z,-1.77
2023-03-11T08:48:49.690Z,-1.76
2023-03-11T08:51:16.647Z,-1.72
2023-03-11T08:53:43.386Z,-1.72
2023-03-11T08:56:10.337Z,-1.69
2023-03-11T08:58:37.091Z,-1.64
2023-03-11T09:01:04.601Z,-1.63
2023-03-11T09:03:32.725Z,-1.62
2023-03-11T09:06:07.779Z,-1.57
2023-03-11T09:08:34.977Z,-1.49
2023-03-11T09:11:01.920Z,-1.41
2023-03-11T09:13:29.232Z,-1.37
2023-03-11T09:15:55.979Z,-1.31
2023-03-11T09:18:22.731Z,-1.25
2023-03-11T09:20:49.552Z,-1.17
2023-03-11T09:23:18.470Z,-1.12
2023-03-11T09:25:45.144Z,-1.05
2023-03-11T09:28:11.857Z,-0.99
2023-03-11T09:30:38.542Z,-0.91
2023-03-11T09:33:05.199Z,-0.86
2023-03-11T09:35:31.926Z,-0.79
2023-03-11T09:37:58.540Z,-0.76
2023-03-11T09:40:27.829Z,-0.72
2023-03-11T09:43:44.872Z,-0.71
2023-03-11T09:46:42.845Z,-0.67
2023-03-11T09:49:29.247Z,-0.64
2023-03-11T09:52:09.850Z,-0.83
2023-03-11T09:54:45.410Z,-0.91
2023-03-11T09:57:21.412Z,-0.87
2023-03-11T09:59:48.794Z,-0.81
2023-03-11T10:02:19.565Z,-0.72
2023-03-11T10:04:57.293Z,-0.63
2023-03-11T10:07:47.226Z,-0.55
2023-03-11T10:10:15.211Z,-0.61
2023-03-11T10:12:49.372Z,-0.59
2023-03-11T10:15:59.901Z,-0.54
2023-03-11T10:18:32.411Z,-0.49
2023-03-11T10:21:20.260Z,-0.45
2023-03-11T10:24:05.369Z,-0.35
2023-03-11T10:26:44.554Z,-0.23
2023-03-11T10:29:54.906Z,-0.14
2023-03-11T10:32:24.274Z,-0.19
2023-03-11T10:34:53.613Z,-0.13
2023-03-11T10:37:48.305Z,-0.01
2023-03-11T10:40:36.956Z,0.14
2023-03-11T10:43:14.409Z,0.26
2023-03-11T10:45:44.887Z,0.36
2023-03-11T10:48:13.857Z,0.43
2023-03-11T10:50:54.425Z,0.50
2023-03-11T10:53:21.275Z,0.57
2023-03-11T10:55:50.429Z,0.65
2023-03-11T10:58:27.038Z,0.74
2023-03-11T11:01:17.024Z,0.83
2023-03-11T11:03:47.109Z,0.90
2023-03-11T11:06:27.715Z,1.04
2023-03-11T11:09:07.740Z,1.15
2023-03-11T11:11:36.517Z,1.28
2023-03-11T11:14:03.217Z,1.38
2023-03-11T11:16:30.410Z,1.49
2023-03-11T11:19:05.381Z,1.54
2023-03-11T11:21:33.827Z,1.61
2023-03-11T11:24:23.077Z,1.61
2023-03-11T11:27:08.584Z,1.61
2023-03-11T11:29:36.040Z,1.62
2023-03-11T11:32:17.136Z,1.69
2023-03-11T11:34:54.409Z,1.75
2023-03-11T11:37:21.136Z,1.74
2023-03-11T11:39:52.916Z,1.76
2023-03-11T11:42:20.499Z,1.63
2023-03-11T11:44:51.272Z,1.58
2023-03-11T11:47:24.117Z,1.66
2023-03-11T11:49:55.696Z,1.84
2023-03-11T11:52:30.934Z,1.99
2023-03-11T11:55:03.291Z,2.12
2023-03-11T11:57:30.364Z,2.20
2023-03-11T11:59:57.699Z,2.21
2023-03-11T12:02:57.215Z,1.90
2023-03-11T12:05:30.936Z,1.50
2023-03-11T12:08:25.392Z,1.18
2023-03-11T12:11:05.947Z,1.00
2023-03-11T12:14:00.288Z,1.04
2023-03-11T12:16:52.657Z,1.28
2023-03-11T12:19:29.665Z,1.49
2023-03-11T12:22:10.064Z,1.66
2023-03-11T12:24:56.609Z,1.83
2023-03-11T12:27:27.974Z,1.97
2023-03-11T12:30:02.164Z,2.13
2023-03-11T12:32:44.039Z,2.09
2023-03-11T12:35:23.688Z,1.62
2023-03-11T12:38:18.747Z,1.08
2023-03-11T12:40:45.295Z,0.89
2023-03-11T12:43:36.349Z,0.82
2023-03-11T12:46:04.515Z,0.77
2023-03-11T12:48:52.469Z,0.68
2023-03-11T12:51:28.399Z,0.57
2023-03-11T12:53:55.903Z,0.52
2023-03-11T12:56:44.283Z,0.39
2023-03-11T12:59:36.114Z,0.21
2023-03-11T13:02:32.991Z,0.04
2023-03-11T13:05:13.205Z,-0.07
2023-03-11T13:07:52.303Z,-0.13
2023-03-11T13:10:35.845Z,-0.18
2023-03-11T13:13:21.778Z,-0.26
2023-03-11T13:15:48.633Z,-0.31
2023-03-11T13:18:17.752Z,-0.31
2023-03-11T13:20:49.336Z,-0.35
2023-03-11T13:23:40.359Z,-0.38
2023-03-11T13:26:19.138Z,-0.40
2023-03-11T13:29:23.113Z,-0.39
2023-03-11T13:32:06.852Z,-0.34
2023-03-11T13:35:04.148Z,-0.39
2023-03-11T13:37:56.895Z,-0.46
2023-03-11T13:40:33.879Z,-0.55
2023-03-11T13:43:09.629Z,-0.54
2023-03-11T13:45:38.171Z,-0.43
2023-03-11T13:48:18.660Z,-0.31
2023-03-11T13:50:53.316Z,-0.22
2023-03-11T13:53:25.876Z,-0.18
2023-03-11T13:55:52.869Z,-0.23
2023-03-11T13:58:25.435Z,-0.22
2023-03-11T14:00:58.262Z,-0.21
2023-03-11T14:03:27.144Z,-0.19
2023-03-11T14:06:06.933Z,-0.14
2023-03-11T14:08:39.127Z,-0.16
2023-03-11T14:11:09.826Z,-0.19
2023-03-11T14:13:44.683Z,-0.22
2023-03-11T14:16:14.391Z,-0.25
2023-03-11T14:18:43.289Z,-0.27
2023-03-11T14:21:21.975Z,-0.27
2023-03-11T14:23:51.187Z,-0.26
2023-03-11T14:26:23.223Z,-0.23
2023-03-11T14:28:55.945Z,-0.13
2023-03-11T14:31:22.614Z,-0.08
2023-03-11T14:34:17.285Z,0.05
2023-03-11T14:36:44.313Z,0.14
2023-03-11T14:39:34.148Z,0.07
2023-03-11T14:42:22.723Z,-0.02
2023-03-11T14:44:52.301Z,0.01
2023-03-11T14:47:51.200Z,0.10
2023-03-11T14:50:24.386Z,0.18
2023-03-11T14:53:06.781Z,0.21
2023-03-11T14:55:50.972Z,0.20
2023-03-11T14:58:29.263Z,0.07
2023-03-11T15:01:09.301Z,0.02
2023-03-11T15:03:40.214Z,-0.02
2023-03-11T15:06:15.563Z,-0.05
2023-03-11T15:08:45.986Z,-0.11
2023-03-11T15:11:12.533Z,-0.12
2023-03-11T15:13:41.718Z,-0.17
2023-03-11T15:16:23.824Z,-0.17
2023-03-11T15:18:50.996Z,-0.23
2023-03-11T15:21:19.804Z,-0.24
2023-03-11T15:24:06.421Z,-0.28
2023-03-11T15:26:35.823Z,-0.32
2023-03-11T15:29:13.175Z,-0.36
2023-03-11T15:31:40.937Z,-0.43
2023-03-11T15:34:31.696Z,-0.53
2023-03-11T15:37:25.306Z,-0.63
2023-03-11T15:39:53.198Z,-0.72
2023-03-11T15:42:25.977Z,-0.80
2023-03-11T15:45:19.856Z,-0.87
2023-03-11T15:47:49.140Z,-0.90
2023-03-11T15:50:24.901Z,-0.92
2023-03-11T15:52:56.854Z,-0.92
2023-03-11T15:55:25.925Z,-0.97
2023-03-11T15:58:08.040Z,-1.01
2023-03-11T16:00:36.130Z,-1.04
2023-03-11T16:03:03.331Z,-1.06
2023-03-11T16:05:30.589Z,-1.13
2023-03-11T16:07:57.429Z,-1.14
2023-03-11T16:10:28.896Z,-1.16
2023-03-11T16:12:56.198Z,-1.20
2023-03-11T16:15:29.102Z,-1.26
2023-03-11T16:17:58.257Z,-1.28
2023-03-11T16:20:27.330Z,-1.30
2023-03-11T16:22:56.558Z,-1.33
2023-03-11T16:25:30.690Z,-1.39
2023-03-11T16:27:58.536Z,-1.44
2023-03-11T16:30:27.440Z,-1.50
2023-03-11T16:32:54.122Z,-1.56
2023-03-11T16:35:21.016Z,-1.62
2023-03-11T16:37:48.103Z,-1.62
2023-03-11T16:40:17.969Z,-1.65
2023-03-11T16:42:45.766Z,-1.71
2023-03-11T16:45:14.663Z,-1.74
2023-03-11T16:47:41.352Z,-1.78
2023-03-11T16:50:09.453Z,-1.82
2023-03-11T16:52:36.204Z,-1.82
2023-03-11T16:55:02.953Z,-1.80
2023-03-11T16:57:29.814Z,-1.77
2023-03-11T16:59:56.716Z,-1.76
2023-03-11T17:02:24.580Z,-1.77
2023-03-11T17:04:51.857Z,-1.78
2023-03-11T17:07:18.610Z,-1.79
2023-03-11T17:09:45.228Z,-1.80
2023-03-11T17:12:15.759Z,-1.81
2023-03-11T17:14:42.522Z,-1.85
2023-03-11T17:17:09.386Z,-1.88
2023-03-11T17:19:36.041Z,-1.91
2023-03-11T17:22:02.906Z,-1.93
2023-03-11T17:24:30.379Z,-1.96
2023-03-11T17:26:57.065Z,-2.01
2023-03-11T17:29:24.059Z,-2.06
2023-03-11T17:31:50.932Z,-2.08
2023-03-11T17:34:17.640Z,-2.09
2023-03-11T17:36:44.607Z,-2.12
2023-03-11T17:39:11.236Z,-2.16
2023-03-11T17:41:37.952Z,-2.21
2023-03-11T17:44:04.968Z,-2.26
2023-03-11T17:46:31.666Z,-2.30
2023-03-11T17:48:58.312Z,-2.35
2023-03-11T17:51:26.358Z,-2.36
2023-03-11T17:53:55.656Z,-2.36
2023-03-11T17:56:22.696Z,-2.36
2023-03-11T17:58:50.577Z,-2.40
2023-03-11T18:01:20.782Z,-2.46
2023-03-11T18:03:47.740Z,-2.52
2023-03-11T18:06:15.136Z,-2.59
2023-03-11T18:08:42.177Z,-2.66
2023-03-11T18:11:12.597Z,-2.72
2023-03-11T18:13:40.122Z,-2.81
2023-03-11T18:16:11.617Z,-2.90
2023-03-11T18:18:39.103Z,-2.98
2023-03-11T18:21:08.079Z,-3.05
2023-03-11T18:23:35.389Z,-3.12
2023-03-11T18:26:04.300Z,-3.19
2023-03-11T18:28:30.983Z,-3.22
2023-03-11T18:30:59.152Z,-3.23
2023-03-11T18:33:25.828Z,-3.24
2023-03-11T18:35:53.388Z,-3.22
2023-03-11T18:38:20.074Z,-3.23
2023-03-11T18:40:46.673Z,-3.22
2023-03-11T18:43:14.697Z,-3.23
2023-03-11T18:45:41.409Z,-3.26
2023-03-11T18:48:08.062Z,-3.30
2023-03-11T18:50:34.753Z,-3.34
2023-03-11T18:53:01.915Z,-3.33
2023-03-11T18:55:28.554Z,-3.35
2023-03-11T18:57:55.179Z,-3.40
2023-03-11T19:00:23.652Z,-3.44
2023-03-11T19:02:52.047Z,-3.49
2023-03-11T19:05:19.410Z,-3.56
2023-03-11T19:07:46.150Z,-3.66
2023-03-11T19:10:14.954Z,-3.77
2023-03-11T19:12:44.385Z,-3.90
2023-03-11T19:15:11.839Z,-4.02
2023-03-11T19:17:38.759Z,-4.09
2023-03-11T19:20:08.774Z,-4.10
2023-03-11T19:22:36.616Z,-4.06
2023-03-11T19:25:04.568Z,-4.06
2023-03-11T19:27:32.071Z,-4.10
2023-03-11T19:29:58.699Z,-4.18
2023-03-11T19:32:25.394Z,-4.26
2023-03-11T19:34:52.036Z,-4.34
2023-03-11T19:37:18.666Z,-4.42
2023-03-11T19:39:45.320Z,-4.50
2023-03-11T19:42:11.954Z,-4.58
2023-03-11T19:44:38.740Z,-4.65
2023-03-11T19:47:05.500Z,-4.67
2023-03-11T19:49:32.109Z,-4.69
2023-03-11T19:51:58.897Z,-4.71
2023-03-11T19:54:25.539Z,-4.71
2023-03-11T19:56:52.156Z,-4.76
2023-03-11T19:59:18.841Z,-4.86
2023-03-11T20:01:45.711Z,-4.92
2023-03-11T20:04:12.662Z,-4.96
2023-03-11T20:06:39.449Z,-4.97
2023-03-11T20:09:06.962Z,-4.98
2023-03-11T20:11:33.715Z,-5.03
2023-03-11T20:14:00.362Z,-5.10
2023-03-11T20:16:27.049Z,-5.20
2023-03-11T20:18:53.786Z,-5.27
2023-03-11T20:21:20.447Z,-5.30
2023-03-11T20:23:49.034Z,-5.32
2023-03-11T20:26:17.911Z,-5.40
2023-03-11T20:28:44.682Z,-5.52
2023-03-11T20:31:17.990Z,-5.65
2023-03-11T20:33:44.780Z,-5.69
2023-03-11T20:36:14.201Z,-5.73
2023-03-11T20:38:41.917Z,-5.74
2023-03-11T20:41:10.189Z,-5.76
2023-03-11T20:43:37.834Z,-5.78
2023-03-11T20:46:06.512Z,-5.80
2023-03-11T20:48:34.275Z,-5.84
2023-03-11T20:51:14.044Z,-5.90
2023-03-11T20:53:40.765Z,-5.95
2023-03-11T20:56:14.591Z,-5.96
2023-03-11T20:58:42.569Z,-6.00
2023-03-11T21:01:16.038Z,-6.02
2023-03-11T21:03:43.456Z,-6.03
2023-03-11T21:06:20.011Z,-6.01
2023-03-11T21:08:47.751Z,-6.01
2023-03-11T21:11:15.334Z,-6.07
2023-03-11T21:13:42.003Z,-6.10
2023-03-11T21:16:09.498Z,-6.08
2023-03-11T21:18:36.452Z,-6.10
2023-03-11T21:21:04.282Z,-6.12
2023-03-11T21:23:30.961Z,-6.18
2023-03-11T21:25:59.293Z,-6.20
2023-03-11T21:28:26.466Z,-6.21
2023-03-11T21:31:05.419Z,-6.24
2023-03-11T21:33:32.519Z,-6.27
2023-03-11T21:36:01.187Z,-6.31
2023-03-11T21:38:28.281Z,-6.36
2023-03-11T21:41:06.001Z,-6.45
2023-03-11T21:43:32.841Z,-6.46
2023-03-11T21:45:59.689Z,-6.43
2023-03-11T21:48:26.654Z,-6.42
2023-03-11T21:50:53.312Z,-6.39
2023-03-11T21:53:20.015Z,-6.42
2023-03-11T21:55:47.390Z,-6.46
2023-03-11T21:58:15.108Z,-6.44
2023-03-11T22:00:41.874Z,-6.45
2023-03-11T22:03:08.772Z,-6.45
2023-03-11T22:05:35.843Z,-6.47
2023-03-11T22:08:03.058Z,-6.48
2023-03-11T22:10:31.403Z,-6.54
2023-03-11T22:12:58.457Z,-6.59
2023-03-11T22:15:25.283Z,-6.58
2023-03-11T22:17:51.924Z,-6.55
2023-03-11T22:20:19.044Z,-6.46
2023-03-11T22:22:45.680Z,-6.38
2023-03-11T22:25:12.358Z,-6.33
2023-03-11T22:27:40.303Z,-6.38
2023-03-11T22:30:08.144Z,-6.43
2023-03-11T22:32:35.384Z,-6.49
2023-03-11T22:35:02.029Z,-6.55
2023-03-11T22:37:28.654Z,-6.60
2023-03-11T22:39:55.287Z,-6.64
2023-03-11T22:42:21.910Z,-6.60
2023-03-11T22:44:48.551Z,-6.59
2023-03-11T22:47:15.191Z,-6.56
2023-03-11T22:49:42.642Z,-6.52
2023-03-11T22:52:09.423Z,-6.54
2023-03-11T22:54:37.626Z,-6.55
2023-03-11T22:57:04.328Z,-6.56
2023-03-11T22:59:31.041Z,-6.51
2023-03-11T23:01:57.799Z,-6.46
2023-03-11T23:04:24.512Z,-6.44
2023-03-11T23:06:51.291Z,-6.38
2023-03-11T23:09:17.944Z,-6.33
2023-03-11T23:11:44.579Z,-6.31
2023-03-11T23:14:11.214Z,-6.29
2023-03-11T23:16:37.887Z,-6.24
2023-03-11T23:19:04.581Z,-6.19
2023-03-11T23:21:32.496Z,-6.17
2023-03-11T23:24:00.806Z,-6.13
2023-03-11T23:26:28.576Z,-6.09
2023-03-11T23:28:56.319Z,-6.06
2023-03-11T23:31:25.266Z,-6.07
2023-03-11T23:33:52.041Z,-6.09
2023-03-11T23:36:21.869Z,-6.10
2023-03-11T23:38:51.019Z,-6.09
2023-03-11T23:41:19.832Z,-6.09
2023-03-11T23:43:47.079Z,-6.13
2023-03-11T23:46:14.118Z,-6.14
2023-03-11T23:48:41.104Z,-6.18
2023-03-11T23:51:09.259Z,-6.22
2023-03-11T23:53:37.922Z,-6.22
2023-03-11T23:56:13.424Z,-6.17
2023-03-11T23:58:40.553Z,-6.14
